sensor_id;sensor_type;location;lat;lon;timestamp;temperature;humidity
44990;DHT22;30723;51.206;3.326;2023-02-20T00:01:54;7.10;99.90
44990;DHT22;30723;51.206;3.326;2023-02-20T00:04:21;7.10;99.90
44990;DHT22;30723;51.206;3.326;2023-02-20T00:06:47;7.10;99.90
44990;DHT22;30723;51.206;3.326;2023-02-20T00:09:14;7.10;99.90
44990;DHT22;30723;51.206;3.326;2023-02-20T00:11:41;7.20;99.90
44990;DHT22;30723;51.206;3.326;2023-02-20T00:14:08;7.10;99.90
44990;DHT22;30723;51.206;3.326;2023-02-20T00:16:35;7.10;99.90
44990;DHT22;30723;51.206;3.326;2023-02-20T00:19:01;7.10;99.90
44990;DHT22;30723;51.206;3.326;2023-02-20T00:21:28;7.00;99.90
44990;DHT22;30723;51.206;3.326;2023-02-20T00:23:55;7.00;99.90
44990;DHT22;30723;51.206;3.326;2023-02-20T00:26:21;7.00;99.90
44990;DHT22;30723;51.206;3.326;2023-02-20T00:28:47;7.00;99.90
44990;DHT22;30723;51.206;3.326;2023-02-20T00:31:15;7.00;99.90
44990;DHT22;30723;51.206;3.326;2023-02-20T00:33:42;7.00;99.90
44990;DHT22;30723;51.206;3.326;2023-02-20T00:36:15;7.00;99.90
44990;DHT22;30723;51.206;3.326;2023-02-20T00:38:43;7.00;99.90
44990;DHT22;30723;51.206;3.326;2023-02-20T00:41:10;7.00;99.90
44990;DHT22;30723;51.206;3.326;2023-02-20T00:43:40;7.00;99.90
44990;DHT22;30723;51.206;3.326;2023-02-20T00:46:09;7.00;99.90
44990;DHT22;30723;51.206;3.326;2023-02-20T00:48:36;7.00;99.90
44990;DHT22;30723;51.206;3.326;2023-02-20T00:51:06;7.00;99.90
44990;DHT22;30723;51.206;3.326;2023-02-20T00:53:32;7.00;99.90
44990;DHT22;30723;51.206;3.326;2023-02-20T00:55:59;7.00;99.90
44990;DHT22;30723;51.206;3.326;2023-02-20T00:58:25;7.10;99.90
44990;DHT22;30723;51.206;3.326;2023-02-20T01:00:50;7.10;99.90
44990;DHT22;30723;51.206;3.326;2023-02-20T01:03:16;7.10;99.90
44990;DHT22;30723;51.206;3.326;2023-02-20T01:05:43;7.00;99.90
44990;DHT22;30723;51.206;3.326;2023-02-20T01:08:09;7.10;99.90
44990;DHT22;30723;51.206;3.326;2023-02-20T01:10:35;7.10;99.90
44990;DHT22;30723;51.206;3.326;2023-02-20T01:13:02;7.10;99.90
44990;DHT22;30723;51.206;3.326;2023-02-20T01:15:28;7.20;99.90
44990;DHT22;30723;51.206;3.326;2023-02-20T01:17:55;7.20;99.90
44990;DHT22;30723;51.206;3.326;2023-02-20T01:20:22;7.20;99.90
44990;DHT22;30723;51.206;3.326;2023-02-20T01:22:48;7.20;99.90
44990;DHT22;30723;51.206;3.326;2023-02-20T01:25:16;7.20;99.90
44990;DHT22;30723;51.206;3.326;2023-02-20T01:27:42;7.20;99.90
44990;DHT22;30723;51.206;3.326;2023-02-20T01:30:08;7.20;99.90
44990;DHT22;30723;51.206;3.326;2023-02-20T01:32:35;7.20;99.90
44990;DHT22;30723;51.206;3.326;2023-02-20T01:35:02;7.20;99.90
44990;DHT22;30723;51.206;3.326;2023-02-20T01:37:28;7.20;99.90
44990;DHT22;30723;51.206;3.326;2023-02-20T01:39:54;7.20;99.90
44990;DHT22;30723;51.206;3.326;2023-02-20T01:42:24;7.20;99.90
44990;DHT22;30723;51.206;3.326;2023-02-20T01:44:51;7.20;99.90
44990;DHT22;30723;51.206;3.326;2023-02-20T01:47:21;7.20;99.90
44990;DHT22;30723;51.206;3.326;2023-02-20T01:52:26;7.30;99.90
44990;DHT22;30723;51.206;3.326;2023-02-20T01:55:10;7.30;99.90
44990;DHT22;30723;51.206;3.326;2023-02-20T01:57:41;7.20;99.90
44990;DHT22;30723;51.206;3.326;2023-02-20T02:00:13;7.30;99.90
44990;DHT22;30723;51.206;3.326;2023-02-20T02:02:44;7.20;99.90
44990;DHT22;30723;51.206;3.326;2023-02-20T02:05:11;7.30;99.90
44990;DHT22;30723;51.206;3.326;2023-02-20T02:07:38;7.30;99.90
44990;DHT22;30723;51.206;3.326;2023-02-20T02:10:25;7.30;99.90
44990;DHT22;30723;51.206;3.326;2023-02-20T02:12:54;7.40;99.90
44990;DHT22;30723;51.206;3.326;2023-02-20T02:15:23;7.40;99.90
44990;DHT22;30723;51.206;3.326;2023-02-20T02:34:22;7.90;99.90
44990;DHT22;30723;51.206;3.326;2023-02-20T02:47:36;8.10;99.90
44990;DHT22;30723;51.206;3.326;2023-02-20T02:50:31;8.10;99.90
44990;DHT22;30723;51.206;3.326;2023-02-20T02:52:56;8.20;99.90
44990;DHT22;30723;51.206;3.326;2023-02-20T02:55:26;8.20;99.90
44990;DHT22;30723;51.206;3.326;2023-02-20T02:57:53;8.20;99.90
44990;DHT22;30723;51.206;3.326;2023-02-20T03:00:29;8.20;99.90
44990;DHT22;30723;51.206;3.326;2023-02-20T03:13:56;8.40;99.90
44990;DHT22;30723;51.206;3.326;2023-02-20T03:19:55;8.40;99.90
44990;DHT22;30723;51.206;3.326;2023-02-20T03:22:30;8.50;99.90
44990;DHT22;30723;51.206;3.326;2023-02-20T03:25:11;8.50;99.90
44990;DHT22;30723;51.206;3.326;2023-02-20T03:27:59;8.50;99.90
44990;DHT22;30723;51.206;3.326;2023-02-20T03:36:56;8.60;99.90
44990;DHT22;30723;51.206;3.326;2023-02-20T03:39:47;8.60;99.90
44990;DHT22;30723;51.206;3.326;2023-02-20T03:42:34;8.70;99.90
44990;DHT22;30723;51.206;3.326;2023-02-20T03:45:21;8.70;99.90
44990;DHT22;30723;51.206;3.326;2023-02-20T03:47:50;8.60;99.90
44990;DHT22;30723;51.206;3.326;2023-02-20T03:50:19;8.60;99.90
44990;DHT22;30723;51.206;3.326;2023-02-20T03:53:04;8.70;99.90
44990;DHT22;30723;51.206;3.326;2023-02-20T03:55:30;8.80;99.90
44990;DHT22;30723;51.206;3.326;2023-02-20T03:57:59;8.70;99.90
44990;DHT22;30723;51.206;3.326;2023-02-20T04:00:30;8.70;99.90
44990;DHT22;30723;51.206;3.326;2023-02-20T04:03:02;8.70;99.90
44990;DHT22;30723;51.206;3.326;2023-02-20T04:05:37;8.70;99.90
44990;DHT22;30723;51.206;3.326;2023-02-20T04:08:48;8.70;99.90
44990;DHT22;30723;51.206;3.326;2023-02-20T04:11:17;8.70;99.90
44990;DHT22;30723;51.206;3.326;2023-02-20T04:13:51;8.70;99.90
44990;DHT22;30723;51.206;3.326;2023-02-20T04:16:20;8.60;99.90
44990;DHT22;30723;51.206;3.326;2023-02-20T04:18:46;8.70;99.90
44990;DHT22;30723;51.206;3.326;2023-02-20T04:21:34;8.70;99.90
44990;DHT22;30723;51.206;3.326;2023-02-20T04:24:15;8.70;99.90
44990;DHT22;30723;51.206;3.326;2023-02-20T04:26:56;8.70;99.90
44990;DHT22;30723;51.206;3.326;2023-02-20T04:29:23;8.70;99.90
44990;DHT22;30723;51.206;3.326;2023-02-20T04:31:49;8.70;99.90
44990;DHT22;30723;51.206;3.326;2023-02-20T04:34:16;8.70;99.90
44990;DHT22;30723;51.206;3.326;2023-02-20T04:36:42;8.70;99.90
44990;DHT22;30723;51.206;3.326;2023-02-20T04:39:09;8.70;99.90
44990;DHT22;30723;51.206;3.326;2023-02-20T04:41:35;8.70;99.90
44990;DHT22;30723;51.206;3.326;2023-02-20T04:44:02;8.70;99.90
44990;DHT22;30723;51.206;3.326;2023-02-20T04:46:47;8.60;99.90
44990;DHT22;30723;51.206;3.326;2023-02-20T04:49:14;8.60;99.90
44990;DHT22;30723;51.206;3.326;2023-02-20T04:51:41;8.70;99.90
44990;DHT22;30723;51.206;3.326;2023-02-20T04:54:07;8.70;99.90
44990;DHT22;30723;51.206;3.326;2023-02-20T04:56:34;8.70;99.90
44990;DHT22;30723;51.206;3.326;2023-02-20T04:59:01;8.70;99.90
44990;DHT22;30723;51.206;3.326;2023-02-20T05:01:27;8.70;99.90
44990;DHT22;30723;51.206;3.326;2023-02-20T05:03:54;8.70;99.90
44990;DHT22;30723;51.206;3.326;2023-02-20T05:06:21;8.70;99.90
44990;DHT22;30723;51.206;3.326;2023-02-20T05:08:48;8.70;99.90
44990;DHT22;30723;51.206;3.326;2023-02-20T05:11:14;8.70;99.90
44990;DHT22;30723;51.206;3.326;2023-02-20T05:13:41;8.80;99.90
44990;DHT22;30723;51.206;3.326;2023-02-20T05:16:08;8.80;99.90
44990;DHT22;30723;51.206;3.326;2023-02-20T05:18:35;8.80;99.90
44990;DHT22;30723;51.206;3.326;2023-02-20T05:21:05;8.80;99.90
44990;DHT22;30723;51.206;3.326;2023-02-20T05:23:50;8.80;99.90
44990;DHT22;30723;51.206;3.326;2023-02-20T05:26:21;8.80;99.90
44990;DHT22;30723;51.206;3.326;2023-02-20T05:28:47;8.70;99.90
44990;DHT22;30723;51.206;3.326;2023-02-20T05:31:13;8.80;99.90
44990;DHT22;30723;51.206;3.326;2023-02-20T05:33:39;8.80;99.90
44990;DHT22;30723;51.206;3.326;2023-02-20T05:36:07;8.80;99.90
44990;DHT22;30723;51.206;3.326;2023-02-20T05:38:33;8.90;99.90
44990;DHT22;30723;51.206;3.326;2023-02-20T05:40:59;8.90;99.90
44990;DHT22;30723;51.206;3.326;2023-02-20T05:43:26;8.90;99.90
44990;DHT22;30723;51.206;3.326;2023-02-20T05:45:53;9.00;99.90
44990;DHT22;30723;51.206;3.326;2023-02-20T05:48:21;8.90;99.90
44990;DHT22;30723;51.206;3.326;2023-02-20T05:50:47;8.90;99.90
44990;DHT22;30723;51.206;3.326;2023-02-20T05:53:16;8.80;99.90
44990;DHT22;30723;51.206;3.326;2023-02-20T05:55:42;8.80;99.90
44990;DHT22;30723;51.206;3.326;2023-02-20T05:58:09;8.80;99.90
44990;DHT22;30723;51.206;3.326;2023-02-20T06:00:35;8.80;99.90
44990;DHT22;30723;51.206;3.326;2023-02-20T06:03:04;8.90;99.90
44990;DHT22;30723;51.206;3.326;2023-02-20T06:05:30;8.90;99.90
44990;DHT22;30723;51.206;3.326;2023-02-20T06:07:57;9.00;99.90
44990;DHT22;30723;51.206;3.326;2023-02-20T06:10:24;8.90;99.90
44990;DHT22;30723;51.206;3.326;2023-02-20T06:12:51;8.80;99.90
44990;DHT22;30723;51.206;3.326;2023-02-20T06:15:18;8.90;99.90
44990;DHT22;30723;51.206;3.326;2023-02-20T06:17:44;8.80;99.90
44990;DHT22;30723;51.206;3.326;2023-02-20T06:20:10;8.80;99.90
44990;DHT22;30723;51.206;3.326;2023-02-20T06:22:37;8.80;99.90
44990;DHT22;30723;51.206;3.326;2023-02-20T06:25:04;8.80;99.90
44990;DHT22;30723;51.206;3.326;2023-02-20T06:27:31;8.90;99.90
44990;DHT22;30723;51.206;3.326;2023-02-20T06:29:57;8.90;99.90
44990;DHT22;30723;51.206;3.326;2023-02-20T06:32:24;8.90;99.90
44990;DHT22;30723;51.206;3.326;2023-02-20T06:34:50;8.80;99.90
44990;DHT22;30723;51.206;3.326;2023-02-20T06:37:17;8.80;99.90
44990;DHT22;30723;51.206;3.326;2023-02-20T06:39:44;8.80;99.90
44990;DHT22;30723;51.206;3.326;2023-02-20T06:42:12;8.90;99.90
44990;DHT22;30723;51.206;3.326;2023-02-20T06:44:38;8.90;99.90
44990;DHT22;30723;51.206;3.326;2023-02-20T06:47:05;8.90;99.90
44990;DHT22;30723;51.206;3.326;2023-02-20T06:49:36;8.90;99.90
44990;DHT22;30723;51.206;3.326;2023-02-20T06:52:05;8.90;99.90
44990;DHT22;30723;51.206;3.326;2023-02-20T06:54:31;8.90;99.90
44990;DHT22;30723;51.206;3.326;2023-02-20T06:56:58;9.00;99.90
44990;DHT22;30723;51.206;3.326;2023-02-20T06:59:25;8.90;99.90
44990;DHT22;30723;51.206;3.326;2023-02-20T07:01:52;8.90;99.90
44990;DHT22;30723;51.206;3.326;2023-02-20T07:04:21;9.00;99.90
44990;DHT22;30723;51.206;3.326;2023-02-20T07:06:48;9.00;99.90
44990;DHT22;30723;51.206;3.326;2023-02-20T07:09:15;9.00;99.90
44990;DHT22;30723;51.206;3.326;2023-02-20T07:11:42;9.00;99.90
44990;DHT22;30723;51.206;3.326;2023-02-20T07:14:09;9.00;99.90
44990;DHT22;30723;51.206;3.326;2023-02-20T07:16:36;9.10;99.90
44990;DHT22;30723;51.206;3.326;2023-02-20T07:19:02;9.10;99.90
44990;DHT22;30723;51.206;3.326;2023-02-20T07:21:29;9.10;99.90
44990;DHT22;30723;51.206;3.326;2023-02-20T07:23:56;9.10;99.90
44990;DHT22;30723;51.206;3.326;2023-02-20T07:26:28;9.10;99.90
44990;DHT22;30723;51.206;3.326;2023-02-20T07:28:57;9.10;99.90
44990;DHT22;30723;51.206;3.326;2023-02-20T07:31:24;9.00;99.90
44990;DHT22;30723;51.206;3.326;2023-02-20T07:33:50;9.10;99.90
44990;DHT22;30723;51.206;3.326;2023-02-20T07:36:17;9.10;99.90
44990;DHT22;30723;51.206;3.326;2023-02-20T07:38:52;9.00;99.90
44990;DHT22;30723;51.206;3.326;2023-02-20T07:41:19;9.10;99.90
44990;DHT22;30723;51.206;3.326;2023-02-20T07:43:46;9.10;99.90
44990;DHT22;30723;51.206;3.326;2023-02-20T07:46:15;9.20;99.90
44990;DHT22;30723;51.206;3.326;2023-02-20T07:48:42;9.20;99.90
44990;DHT22;30723;51.206;3.326;2023-02-20T07:51:08;9.20;99.90
44990;DHT22;30723;51.206;3.326;2023-02-20T07:53:35;9.30;99.90
44990;DHT22;30723;51.206;3.326;2023-02-20T07:56:00;9.30;99.90
44990;DHT22;30723;51.206;3.326;2023-02-20T07:58:26;9.20;99.90
44990;DHT22;30723;51.206;3.326;2023-02-20T08:00:53;9.20;99.90
44990;DHT22;30723;51.206;3.326;2023-02-20T08:03:20;9.20;99.90
44990;DHT22;30723;51.206;3.326;2023-02-20T08:05:46;9.30;99.90
44990;DHT22;30723;51.206;3.326;2023-02-20T08:08:13;9.30;99.90
44990;DHT22;30723;51.206;3.326;2023-02-20T08:10:39;9.40;99.90
44990;DHT22;30723;51.206;3.326;2023-02-20T08:13:05;9.40;99.90
44990;DHT22;30723;51.206;3.326;2023-02-20T08:15:32;9.40;99.90
44990;DHT22;30723;51.206;3.326;2023-02-20T08:17:58;9.50;99.90
44990;DHT22;30723;51.206;3.326;2023-02-20T08:20:24;9.50;99.90
44990;DHT22;30723;51.206;3.326;2023-02-20T08:22:50;9.50;99.90
44990;DHT22;30723;51.206;3.326;2023-02-20T08:25:16;9.50;99.90
44990;DHT22;30723;51.206;3.326;2023-02-20T08:27:46;9.50;99.90
44990;DHT22;30723;51.206;3.326;2023-02-20T08:30:21;9.50;99.90
44990;DHT22;30723;51.206;3.326;2023-02-20T08:32:49;9.60;99.90
44990;DHT22;30723;51.206;3.326;2023-02-20T08:35:16;9.60;99.90
44990;DHT22;30723;51.206;3.326;2023-02-20T08:37:43;9.50;99.90
44990;DHT22;30723;51.206;3.326;2023-02-20T08:40:11;9.60;99.90
44990;DHT22;30723;51.206;3.326;2023-02-20T08:42:38;9.50;99.90
44990;DHT22;30723;51.206;3.326;2023-02-20T08:45:06;9.60;99.90
44990;DHT22;30723;51.206;3.326;2023-02-20T08:47:33;9.60;99.90
44990;DHT22;30723;51.206;3.326;2023-02-20T08:50:00;9.60;99.90
44990;DHT22;30723;51.206;3.326;2023-02-20T08:52:27;9.60;99.90
44990;DHT22;30723;51.206;3.326;2023-02-20T08:54:53;9.70;99.90
44990;DHT22;30723;51.206;3.326;2023-02-20T08:57:19;9.70;99.90
44990;DHT22;30723;51.206;3.326;2023-02-20T08:59:46;9.60;99.90
44990;DHT22;30723;51.206;3.326;2023-02-20T09:02:18;9.60;99.90
44990;DHT22;30723;51.206;3.326;2023-02-20T09:04:46;9.60;99.90
44990;DHT22;30723;51.206;3.326;2023-02-20T09:07:12;9.50;99.90
44990;DHT22;30723;51.206;3.326;2023-02-20T09:09:39;9.50;99.90
44990;DHT22;30723;51.206;3.326;2023-02-20T09:12:08;9.60;99.90
44990;DHT22;30723;51.206;3.326;2023-02-20T09:14:35;9.70;99.90
44990;DHT22;30723;51.206;3.326;2023-02-20T09:17:01;9.70;99.90
44990;DHT22;30723;51.206;3.326;2023-02-20T09:19:28;9.70;99.90
44990;DHT22;30723;51.206;3.326;2023-02-20T09:21:54;9.70;99.90
44990;DHT22;30723;51.206;3.326;2023-02-20T09:24:22;9.80;99.90
44990;DHT22;30723;51.206;3.326;2023-02-20T09:26:47;9.70;99.90
44990;DHT22;30723;51.206;3.326;2023-02-20T09:29:13;9.80;99.90
44990;DHT22;30723;51.206;3.326;2023-02-20T09:31:39;9.70;99.90
44990;DHT22;30723;51.206;3.326;2023-02-20T09:34:05;9.70;99.90
44990;DHT22;30723;51.206;3.326;2023-02-20T09:36:31;9.70;99.90
44990;DHT22;30723;51.206;3.326;2023-02-20T09:38:57;9.70;99.90
44990;DHT22;30723;51.206;3.326;2023-02-20T09:46:32;9.70;99.90
44990;DHT22;30723;51.206;3.326;2023-02-20T09:49:22;9.70;99.90
44990;DHT22;30723;51.206;3.326;2023-02-20T09:51:58;9.70;99.90
44990;DHT22;30723;51.206;3.326;2023-02-20T09:54:48;9.80;99.90
44990;DHT22;30723;51.206;3.326;2023-02-20T09:57:22;9.80;99.90
44990;DHT22;30723;51.206;3.326;2023-02-20T09:59:57;9.60;99.90
44990;DHT22;30723;51.206;3.326;2023-02-20T10:02:36;9.70;99.90
44990;DHT22;30723;51.206;3.326;2023-02-20T10:05:12;9.80;99.90
44990;DHT22;30723;51.206;3.326;2023-02-20T10:07:39;9.80;99.90
44990;DHT22;30723;51.206;3.326;2023-02-20T10:10:30;9.70;99.90
44990;DHT22;30723;51.206;3.326;2023-02-20T10:20:51;9.90;99.90
44990;DHT22;30723;51.206;3.326;2023-02-20T10:26:21;9.90;99.90
44990;DHT22;30723;51.206;3.326;2023-02-20T10:28:49;9.90;99.90
44990;DHT22;30723;51.206;3.326;2023-02-20T10:34:02;10.00;99.90
44990;DHT22;30723;51.206;3.326;2023-02-20T10:36:34;9.90;99.90
44990;DHT22;30723;51.206;3.326;2023-02-20T10:41:44;10.10;99.90
44990;DHT22;30723;51.206;3.326;2023-02-20T10:47:33;10.30;99.90
44990;DHT22;30723;51.206;3.326;2023-02-20T10:50:08;10.40;99.90
44990;DHT22;30723;51.206;3.326;2023-02-20T10:55:16;10.40;99.90
44990;DHT22;30723;51.206;3.326;2023-02-20T10:57:50;10.30;99.90
44990;DHT22;30723;51.206;3.326;2023-02-20T11:00:24;10.40;99.90
44990;DHT22;30723;51.206;3.326;2023-02-20T11:02:58;10.50;99.90
44990;DHT22;30723;51.206;3.326;2023-02-20T11:05:28;10.60;99.90
44990;DHT22;30723;51.206;3.326;2023-02-20T11:07:56;10.70;99.90
44990;DHT22;30723;51.206;3.326;2023-02-20T11:10:23;10.60;99.90
44990;DHT22;30723;51.206;3.326;2023-02-20T11:12:56;10.50;99.90
44990;DHT22;30723;51.206;3.326;2023-02-20T11:15:29;10.60;99.90
44990;DHT22;30723;51.206;3.326;2023-02-20T11:17:57;10.60;99.90
44990;DHT22;30723;51.206;3.326;2023-02-20T11:23:07;10.60;99.90
44990;DHT22;30723;51.206;3.326;2023-02-20T11:25:33;10.60;99.90
44990;DHT22;30723;51.206;3.326;2023-02-20T11:28:09;10.40;99.90
44990;DHT22;30723;51.206;3.326;2023-02-20T11:30:39;10.40;99.90
44990;DHT22;30723;51.206;3.326;2023-02-20T11:35:40;10.30;99.90
44990;DHT22;30723;51.206;3.326;2023-02-20T11:41:12;10.30;99.90
44990;DHT22;30723;51.206;3.326;2023-02-20T11:43:44;10.20;99.90
44990;DHT22;30723;51.206;3.326;2023-02-20T11:46:19;10.30;99.90
44990;DHT22;30723;51.206;3.326;2023-02-20T11:49:11;10.30;99.90
44990;DHT22;30723;51.206;3.326;2023-02-20T11:51:47;10.30;99.90
44990;DHT22;30723;51.206;3.326;2023-02-20T11:54:21;10.40;99.90
44990;DHT22;30723;51.206;3.326;2023-02-20T11:57:17;10.50;99.90
44990;DHT22;30723;51.206;3.326;2023-02-20T11:59:50;10.60;99.90
44990;DHT22;30723;51.206;3.326;2023-02-20T12:12:57;10.70;99.90
44990;DHT22;30723;51.206;3.326;2023-02-20T12:15:24;10.70;99.90
44990;DHT22;30723;51.206;3.326;2023-02-20T12:24:04;10.80;99.90
44990;DHT22;30723;51.206;3.326;2023-02-20T12:26:53;10.90;99.90
44990;DHT22;30723;51.206;3.326;2023-02-20T12:46:06;11.00;99.90
44990;DHT22;30723;51.206;3.326;2023-02-20T12:56:40;10.90;99.90
44990;DHT22;30723;51.206;3.326;2023-02-20T13:01:39;10.90;99.90
44990;DHT22;30723;51.206;3.326;2023-02-20T13:04:26;11.00;99.90
44990;DHT22;30723;51.206;3.326;2023-02-20T13:07:05;11.10;99.90
44990;DHT22;30723;51.206;3.326;2023-02-20T13:09:53;11.10;99.90
44990;DHT22;30723;51.206;3.326;2023-02-20T13:12:21;11.00;99.90
44990;DHT22;30723;51.206;3.326;2023-02-20T13:15:13;11.10;99.90
44990;DHT22;30723;51.206;3.326;2023-02-20T13:17:51;11.20;99.90
44990;DHT22;30723;51.206;3.326;2023-02-20T13:20:32;11.00;99.90
44990;DHT22;30723;51.206;3.326;2023-02-20T13:25:45;10.80;99.90
44990;DHT22;30723;51.206;3.326;2023-02-20T13:30:38;10.90;99.90
44990;DHT22;30723;51.206;3.326;2023-02-20T13:35:52;10.80;99.90
44990;DHT22;30723;51.206;3.326;2023-02-20T13:38:20;10.90;99.90
44990;DHT22;30723;51.206;3.326;2023-02-20T13:46:07;10.70;99.90
44990;DHT22;30723;51.206;3.326;2023-02-20T13:48:49;10.70;99.90
44990;DHT22;30723;51.206;3.326;2023-02-20T13:59:10;10.90;99.90
44990;DHT22;30723;51.206;3.326;2023-02-20T14:01:56;11.00;99.90
44990;DHT22;30723;51.206;3.326;2023-02-20T14:04:26;11.20;99.90
44990;DHT22;30723;51.206;3.326;2023-02-20T14:06:54;11.20;99.90
44990;DHT22;30723;51.206;3.326;2023-02-20T14:09:25;11.30;99.90
44990;DHT22;30723;51.206;3.326;2023-02-20T14:12:06;11.30;99.90
44990;DHT22;30723;51.206;3.326;2023-02-20T14:14:44;11.20;99.90
44990;DHT22;30723;51.206;3.326;2023-02-20T14:17:18;11.20;99.90
44990;DHT22;30723;51.206;3.326;2023-02-20T14:19:48;11.20;99.90
44990;DHT22;30723;51.206;3.326;2023-02-20T14:27:51;11.30;99.90
44990;DHT22;30723;51.206;3.326;2023-02-20T14:30:29;11.20;99.90
44990;DHT22;30723;51.206;3.326;2023-02-20T14:32:56;11.00;99.90
44990;DHT22;30723;51.206;3.326;2023-02-20T14:40:57;11.10;99.90
44990;DHT22;30723;51.206;3.326;2023-02-20T14:43:25;11.20;99.90
44990;DHT22;30723;51.206;3.326;2023-02-20T14:46:03;11.20;99.90
44990;DHT22;30723;51.206;3.326;2023-02-20T14:48:33;11.30;99.90
44990;DHT22;30723;51.206;3.326;2023-02-20T14:51:13;11.40;99.90
44990;DHT22;30723;51.206;3.326;2023-02-20T14:53:40;11.40;99.90
44990;DHT22;30723;51.206;3.326;2023-02-20T14:56:24;11.30;99.90
44990;DHT22;30723;51.206;3.326;2023-02-20T14:58:50;11.30;99.90
44990;DHT22;30723;51.206;3.326;2023-02-20T15:04:09;11.10;99.90
44990;DHT22;30723;51.206;3.326;2023-02-20T15:06:39;11.10;99.90
44990;DHT22;30723;51.206;3.326;2023-02-20T15:09:08;11.10;99.90
44990;DHT22;30723;51.206;3.326;2023-02-20T15:11:43;11.00;99.90
44990;DHT22;30723;51.206;3.326;2023-02-20T15:14:22;11.00;99.90
44990;DHT22;30723;51.206;3.326;2023-02-20T15:19:35;10.90;99.90
44990;DHT22;30723;51.206;3.326;2023-02-20T15:22:02;10.90;99.90
44990;DHT22;30723;51.206;3.326;2023-02-20T15:24:39;10.90;99.90
44990;DHT22;30723;51.206;3.326;2023-02-20T15:27:11;10.90;99.90
44990;DHT22;30723;51.206;3.326;2023-02-20T15:29:38;10.90;99.90
44990;DHT22;30723;51.206;3.326;2023-02-20T15:32:27;11.00;99.90
44990;DHT22;30723;51.206;3.326;2023-02-20T15:34:55;11.00;99.90
44990;DHT22;30723;51.206;3.326;2023-02-20T15:37:30;11.00;99.90
44990;DHT22;30723;51.206;3.326;2023-02-20T15:40:15;11.00;99.90
44990;DHT22;30723;51.206;3.326;2023-02-20T15:42:44;11.00;99.90
44990;DHT22;30723;51.206;3.326;2023-02-20T15:45:15;11.00;99.90
44990;DHT22;30723;51.206;3.326;2023-02-20T15:47:41;10.80;99.90
44990;DHT22;30723;51.206;3.326;2023-02-20T15:50:07;10.80;99.90
44990;DHT22;30723;51.206;3.326;2023-02-20T15:52:33;10.80;99.90
44990;DHT22;30723;51.206;3.326;2023-02-20T15:55:00;10.70;99.90
44990;DHT22;30723;51.206;3.326;2023-02-20T15:57:27;10.70;99.90
44990;DHT22;30723;51.206;3.326;2023-02-20T15:59:53;10.80;99.90
44990;DHT22;30723;51.206;3.326;2023-02-20T16:02:21;10.90;99.90
44990;DHT22;30723;51.206;3.326;2023-02-20T16:04:50;10.90;99.90
44990;DHT22;30723;51.206;3.326;2023-02-20T16:07:17;11.00;99.90
44990;DHT22;30723;51.206;3.326;2023-02-20T16:09:45;11.00;99.90
44990;DHT22;30723;51.206;3.326;2023-02-20T16:12:16;10.90;99.90
44990;DHT22;30723;51.206;3.326;2023-02-20T16:14:43;10.80;99.90
44990;DHT22;30723;51.206;3.326;2023-02-20T16:17:14;10.80;99.90
44990;DHT22;30723;51.206;3.326;2023-02-20T16:19:42;10.90;99.90
44990;DHT22;30723;51.206;3.326;2023-02-20T16:22:09;10.80;99.90
44990;DHT22;30723;51.206;3.326;2023-02-20T16:24:37;10.70;99.90
44990;DHT22;30723;51.206;3.326;2023-02-20T16:27:06;10.70;99.90
44990;DHT22;30723;51.206;3.326;2023-02-20T16:29:34;10.60;99.90
44990;DHT22;30723;51.206;3.326;2023-02-20T16:34:31;10.60;99.90
44990;DHT22;30723;51.206;3.326;2023-02-20T16:36:57;10.60;99.90
44990;DHT22;30723;51.206;3.326;2023-02-20T16:39:25;10.60;99.90
44990;DHT22;30723;51.206;3.326;2023-02-20T16:41:52;10.60;99.90
44990;DHT22;30723;51.206;3.326;2023-02-20T16:44:22;10.60;99.90
44990;DHT22;30723;51.206;3.326;2023-02-20T16:46:49;10.60;99.90
44990;DHT22;30723;51.206;3.326;2023-02-20T16:49:15;10.50;99.90
44990;DHT22;30723;51.206;3.326;2023-02-20T16:51:43;10.50;99.90
44990;DHT22;30723;51.206;3.326;2023-02-20T16:54:14;10.50;99.90
44990;DHT22;30723;51.206;3.326;2023-02-20T16:56:41;10.40;99.90
44990;DHT22;30723;51.206;3.326;2023-02-20T16:59:07;10.40;99.90
44990;DHT22;30723;51.206;3.326;2023-02-20T17:01:37;10.30;99.90
44990;DHT22;30723;51.206;3.326;2023-02-20T17:04:04;10.40;99.90
44990;DHT22;30723;51.206;3.326;2023-02-20T17:06:30;10.30;99.90
44990;DHT22;30723;51.206;3.326;2023-02-20T17:08:57;10.30;99.90
44990;DHT22;30723;51.206;3.326;2023-02-20T17:11:25;10.20;99.90
44990;DHT22;30723;51.206;3.326;2023-02-20T17:13:51;10.30;99.90
44990;DHT22;30723;51.206;3.326;2023-02-20T17:16:17;10.30;99.90
44990;DHT22;30723;51.206;3.326;2023-02-20T17:18:44;10.20;99.90
44990;DHT22;30723;51.206;3.326;2023-02-20T17:21:11;10.20;99.90
44990;DHT22;30723;51.206;3.326;2023-02-20T17:23:37;10.20;99.90
44990;DHT22;30723;51.206;3.326;2023-02-20T17:26:04;10.20;99.90
44990;DHT22;30723;51.206;3.326;2023-02-20T17:28:32;10.20;99.90
44990;DHT22;30723;51.206;3.326;2023-02-20T17:30:58;10.20;99.90
44990;DHT22;30723;51.206;3.326;2023-02-20T17:33:25;10.20;99.90
44990;DHT22;30723;51.206;3.326;2023-02-20T17:35:51;10.20;99.90
44990;DHT22;30723;51.206;3.326;2023-02-20T17:38:17;10.20;99.90
44990;DHT22;30723;51.206;3.326;2023-02-20T17:40:44;10.10;99.90
44990;DHT22;30723;51.206;3.326;2023-02-20T17:43:10;10.10;99.90
44990;DHT22;30723;51.206;3.326;2023-02-20T17:45:36;10.10;99.90
44990;DHT22;30723;51.206;3.326;2023-02-20T17:48:02;10.10;99.90
44990;DHT22;30723;51.206;3.326;2023-02-20T17:50:30;10.10;99.90
44990;DHT22;30723;51.206;3.326;2023-02-20T17:52:56;10.10;99.90
44990;DHT22;30723;51.206;3.326;2023-02-20T17:55:25;10.00;99.90
44990;DHT22;30723;51.206;3.326;2023-02-20T17:57:52;10.00;99.90
44990;DHT22;30723;51.206;3.326;2023-02-20T18:00:19;10.10;99.90
44990;DHT22;30723;51.206;3.326;2023-02-20T18:02:46;10.00;99.90
44990;DHT22;30723;51.206;3.326;2023-02-20T18:05:13;10.00;99.90
44990;DHT22;30723;51.206;3.326;2023-02-20T18:07:40;10.00;99.90
44990;DHT22;30723;51.206;3.326;2023-02-20T18:10:07;10.00;99.90
44990;DHT22;30723;51.206;3.326;2023-02-20T18:12:34;10.00;99.90
44990;DHT22;30723;51.206;3.326;2023-02-20T18:15:01;10.00;99.90
44990;DHT22;30723;51.206;3.326;2023-02-20T18:17:27;9.90;99.90
44990;DHT22;30723;51.206;3.326;2023-02-20T18:19:55;9.90;99.90
44990;DHT22;30723;51.206;3.326;2023-02-20T18:22:21;9.90;99.90
44990;DHT22;30723;51.206;3.326;2023-02-20T18:24:48;9.80;99.90
44990;DHT22;30723;51.206;3.326;2023-02-20T18:27:15;9.80;99.90
44990;DHT22;30723;51.206;3.326;2023-02-20T18:29:41;9.90;99.90
44990;DHT22;30723;51.206;3.326;2023-02-20T18:32:07;9.90;99.90
44990;DHT22;30723;51.206;3.326;2023-02-20T18:34:34;10.10;99.90
44990;DHT22;30723;51.206;3.326;2023-02-20T18:37:01;10.10;99.90
44990;DHT22;30723;51.206;3.326;2023-02-20T18:39:28;10.00;99.90
44990;DHT22;30723;51.206;3.326;2023-02-20T18:41:55;10.00;99.90
44990;DHT22;30723;51.206;3.326;2023-02-20T18:44:22;10.00;99.90
44990;DHT22;30723;51.206;3.326;2023-02-20T18:46:48;10.10;99.90